Private Wetterstation Sandau
Wetterdaten: Mittwoch, 22.02.2012
Datum Zeit Temp. A. Feuchte A. Luftdruck Regen Wind Richtung Richtung Taupunkt Windchill
22.02.2012 00:02 5,1 C 90 % 1028,6 hPa 0,0 l/m 14,8 km/h (3 Bft) SW 225 3,6 C 1,9 C
22.02.2012 00:07 5,1 C 90 % 1028,7 hPa 0,0 l/m 11,9 km/h (2 Bft) W-SW 247 3,6 C 2,4 C
22.02.2012 00:12 5,1 C 90 % 1028,6 hPa 0,0 l/m 10,1 km/h (2 Bft) W 270 3,6 C 2,8 C
22.02.2012 00:17 5,1 C 91 % 1028,6 hPa 0,0 l/m 4,0 km/h (1 Bft) NW 315 3,8 C 5,1 C
22.02.2012 00:22 5,1 C 91 % 1028,6 hPa 0,0 l/m 14,4 km/h (3 Bft) W 270 3,8 C 2,0 C
22.02.2012 00:27 5,2 C 91 % 1028,6 hPa 0,0 l/m 14,8 km/h (3 Bft) NW 315 3,9 C 2,0 C
22.02.2012 00:32 5,2 C 91 % 1028,6 hPa 0,0 l/m 21,6 km/h (4 Bft) W-SW 247 3,9 C 1,1 C
22.02.2012 00:37 5,3 C 90 % 1028,7 hPa 0,0 l/m 6,1 km/h (2 Bft) SW 225 3,8 C 4,0 C
22.02.2012 00:42 5,3 C 90 % 1028,6 hPa 0,0 l/m 17,3 km/h (3 Bft) W-SW 247 3,8 C 1,8 C
22.02.2012 00:47 5,3 C 90 % 1028,7 hPa 0,0 l/m 19,1 km/h (3 Bft) W-SW 247 3,8 C 1,6 C
22.02.2012 00:52 5,3 C 90 % 1028,6 hPa 0,0 l/m 19,4 km/h (3 Bft) W-SW 247 3,8 C 1,5 C
22.02.2012 00:57 5,3 C 90 % 1028,7 hPa 0,0 l/m 8,6 km/h (2 Bft) W-SW 247 3,8 C 3,3 C
22.02.2012 01:02 5,3 C 90 % 1028,8 hPa 0,0 l/m 11,5 km/h (2 Bft) W-SW 247 3,8 C 2,7 C
22.02.2012 01:07 5,3 C 90 % 1028,8 hPa 0,0 l/m 16,6 km/h (3 Bft) SW 225 3,8 C 1,9 C
22.02.2012 01:12 5,4 C 89 % 1028,7 hPa 0,0 l/m 5,8 km/h (2 Bft) W-SW 247 3,7 C 4,2 C
22.02.2012 01:17 5,4 C 89 % 1028,8 hPa 0,0 l/m 13,0 km/h (3 Bft) W-SW 247 3,7 C 2,6 C
22.02.2012 01:22 5,4 C 89 % 1029,1 hPa 0,0 l/m 25,9 km/h (4 Bft) W 270 3,7 C 0,9 C
22.02.2012 01:27 5,5 C 89 % 1029,0 hPa 0,0 l/m 13,0 km/h (3 Bft) W-SW 247 3,8 C 2,7 C
22.02.2012 01:32 5,5 C 89 % 1029,0 hPa 0,0 l/m 10,8 km/h (2 Bft) S 180 3,8 C 3,1 C
22.02.2012 01:37 5,5 C 89 % 1028,8 hPa 0,0 l/m 10,1 km/h (2 Bft) W 270 3,8 C 3,2 C
22.02.2012 01:42 5,5 C 89 % 1028,9 hPa 0,0 l/m 5,0 km/h (1 Bft) W 270 3,8 C 4,7 C
22.02.2012 01:47 5,5 C 89 % 1029,0 hPa 0,0 l/m 8,3 km/h (2 Bft) W 270 3,8 C 3,6 C
22.02.2012 01:52 5,5 C 89 % 1028,8 hPa 0,0 l/m 14,4 km/h (3 Bft) W-SW 247 3,8 C 2,5 C
22.02.2012 01:57 5,5 C 89 % 1028,9 hPa 0,0 l/m 6,8 km/h (2 Bft) W 270 3,8 C 4,1 C
22.02.2012 02:02 5,6 C 89 % 1028,9 hPa 0,0 l/m 7,2 km/h (2 Bft) W 270 3,9 C 4,1 C
22.02.2012 02:07 5,6 C 89 % 1028,7 hPa 0,0 l/m 9,4 km/h (2 Bft) W-SW 247 3,9 C 3,5 C
22.02.2012 02:12 5,6 C 89 % 1028,7 hPa 0,0 l/m 8,3 km/h (2 Bft) W 270 3,9 C 3,8 C
22.02.2012 02:17 5,6 C 89 % 1028,9 hPa 0,0 l/m 9,7 km/h (2 Bft) W-SW 247 3,9 C 3,4 C
22.02.2012 02:22 5,6 C 88 % 1028,8 hPa 0,0 l/m 13,0 km/h (3 Bft) W-SW 247 3,8 C 2,8 C
22.02.2012 02:27 5,6 C 88 % 1028,9 hPa 0,0 l/m 15,8 km/h (3 Bft) W-SW 247 3,8 C 2,4 C
22.02.2012 02:32 5,6 C 88 % 1028,8 hPa 0,0 l/m 16,6 km/h (3 Bft) SW 225 3,8 C 2,3 C
22.02.2012 02:37 5,6 C 88 % 1028,9 hPa 0,0 l/m 10,4 km/h (2 Bft) W-SW 247 3,8 C 3,3 C
22.02.2012 02:42 5,6 C 88 % 1028,6 hPa 0,0 l/m 14,8 km/h (3 Bft) W 270 3,8 C 2,5 C
22.02.2012 02:47 5,6 C 88 % 1028,7 hPa 0,0 l/m 18,0 km/h (3 Bft) W-SW 247 3,8 C 2,1 C
22.02.2012 02:52 5,6 C 88 % 1028,7 hPa 0,0 l/m 12,2 km/h (2 Bft) SW 225 3,8 C 2,9 C
22.02.2012 02:57 5,6 C 88 % 1028,6 hPa 0,0 l/m 15,5 km/h (3 Bft) W-SW 247 3,8 C 2,4 C
22.02.2012 03:02 5,6 C 88 % 1028,6 hPa 0,0 l/m 14,0 km/h (3 Bft) W-SW 247 3,8 C 2,6 C
22.02.2012 03:07 5,6 C 88 % 1028,6 hPa 0,0 l/m 10,1 km/h (2 Bft) W-SW 247 3,8 C 3,4 C
22.02.2012 03:12 5,6 C 87 % 1028,6 hPa 0,0 l/m 22,7 km/h (4 Bft) W-SW 247 3,6 C 1,5 C
22.02.2012 03:17 5,6 C 87 % 1028,7 hPa 0,0 l/m 15,8 km/h (3 Bft) SW 225 3,6 C 2,4 C
22.02.2012 03:22 5,6 C 87 % 1028,6 hPa 0,0 l/m 8,3 km/h (2 Bft) W 270 3,6 C 3,8 C
22.02.2012 03:27 5,6 C 87 % 1028,6 hPa 0,0 l/m 7,6 km/h (2 Bft) W-SW 247 3,6 C 3,9 C
22.02.2012 03:32 5,6 C 87 % 1028,6 hPa 0,0 l/m 18,7 km/h (3 Bft) W-SW 247 3,6 C 2,0 C
22.02.2012 03:37 5,6 C 87 % 1028,7 hPa 0,0 l/m 8,6 km/h (2 Bft) W 270 3,6 C 3,7 C
22.02.2012 03:42 5,6 C 86 % 1028,5 hPa 0,0 l/m 6,1 km/h (2 Bft) W-SW 247 3,4 C 4,4 C
22.02.2012 03:47 5,5 C 86 % 1028,5 hPa 0,0 l/m 17,3 km/h (3 Bft) W 270 3,3 C 2,0 C
22.02.2012 03:52 5,5 C 86 % 1028,5 hPa 0,0 l/m 12,2 km/h (2 Bft) W-SW 247 3,3 C 2,8 C
22.02.2012 03:57 5,5 C 86 % 1028,5 hPa 0,0 l/m 5,0 km/h (1 Bft) S-SW 202 3,3 C 4,7 C
22.02.2012 04:02 5,4 C 87 % 1028,6 hPa 0,0 l/m 6,5 km/h (2 Bft) W-SW 247 3,4 C 4,0 C
22.02.2012 04:07 5,4 C 87 % 1028,6 hPa 0,0 l/m 14,4 km/h (3 Bft) W-SW 247 3,4 C 2,3 C
22.02.2012 04:12 5,3 C 87 % 1028,5 hPa 0,0 l/m 10,8 km/h (2 Bft) W-SW 247 3,3 C 2,9 C
22.02.2012 04:17 5,3 C 87 % 1028,5 hPa 0,0 l/m 8,3 km/h (2 Bft) W 270 3,3 C 3,4 C
22.02.2012 04:22 5,3 C 87 % 1028,2 hPa 0,0 l/m 10,4 km/h (2 Bft) SW 225 3,3 C 2,9 C
22.02.2012 04:27 5,3 C 87 % 1028,3 hPa 0,0 l/m 6,8 km/h (2 Bft) W 270 3,3 C 3,8 C
22.02.2012 04:32 5,3 C 87 % 1028,2 hPa 0,0 l/m 19,1 km/h (3 Bft) W-SW 247 3,3 C 1,6 C
22.02.2012 04:37 5,3 C 87 % 1028,3 hPa 0,0 l/m 13,3 km/h (3 Bft) W-SW 247 3,3 C 2,4 C
22.02.2012 04:42 5,3 C 86 % 1028,2 hPa 0,0 l/m 13,0 km/h (3 Bft) W-SW 247 3,2 C 2,4 C
22.02.2012 04:47 5,4 C 86 % 1028,3 hPa 0,0 l/m 10,1 km/h (2 Bft) W 270 3,3 C 3,1 C
22.02.2012 04:52 5,3 C 86 % 1028,3 hPa 0,0 l/m 19,1 km/h (3 Bft) W-SW 247 3,2 C 1,6 C
22.02.2012 04:57 5,3 C 86 % 1028,3 hPa 0,0 l/m 31,3 km/h (5 Bft) W-SW 247 3,2 C 0,3 C
22.02.2012 05:02 5,3 C 86 % 1028,2 hPa 0,0 l/m 13,3 km/h (3 Bft) W 270 3,2 C 2,4 C
22.02.2012 05:07 5,4 C 86 % 1028,3 hPa 0,0 l/m 16,9 km/h (3 Bft) SW 225 3,3 C 2,0 C
22.02.2012 05:12 5,3 C 86 % 1028,5 hPa 0,0 l/m 22,3 km/h (4 Bft) W-SW 247 3,2 C 1,2 C
22.02.2012 05:17 5,3 C 86 % 1028,4 hPa 0,0 l/m 6,5 km/h (2 Bft) S-SW 202 3,2 C 3,9 C
22.02.2012 05:22 5,3 C 85 % 1028,4 hPa 0,0 l/m 16,9 km/h (3 Bft) S 180 3,0 C 1,8 C
22.02.2012 05:27 5,3 C 85 % 1028,2 hPa 0,0 l/m 26,3 km/h (4 Bft) W-SW 247 3,0 C 0,8 C
22.02.2012 05:32 5,3 C 85 % 1028,3 hPa 0,0 l/m 11,2 km/h (2 Bft) SW 225 3,0 C 2,8 C
22.02.2012 05:37 5,2 C 85 % 1028,0 hPa 0,0 l/m 16,9 km/h (3 Bft) W-SW 247 2,9 C 1,7 C
22.02.2012 05:42 5,2 C 85 % 1028,1 hPa 0,0 l/m 19,8 km/h (3 Bft) W-SW 247 2,9 C 1,3 C
22.02.2012 05:47 5,1 C 85 % 1028,1 hPa 0,0 l/m 10,1 km/h (2 Bft) W 270 2,8 C 2,8 C
22.02.2012 05:52 4,9 C 85 % 1028,0 hPa 0,0 l/m 19,8 km/h (3 Bft) W 270 2,6 C 1,0 C
22.02.2012 05:57 4,9 C 85 % 1028,1 hPa 0,0 l/m 19,1 km/h (3 Bft) W-SW 247 2,6 C 1,1 C
22.02.2012 06:02 4,8 C 85 % 1028,1 hPa 0,0 l/m 9,7 km/h (2 Bft) W 270 2,5 C 2,5 C
22.02.2012 06:07 4,6 C 85 % 1028,3 hPa 0,0 l/m 16,6 km/h (3 Bft) W-SW 247 2,3 C 1,0 C
22.02.2012 06:12 4,6 C 85 % 1028,3 hPa 0,0 l/m 13,7 km/h (3 Bft) W-SW 247 2,3 C 1,5 C
22.02.2012 06:17 4,4 C 85 % 1028,1 hPa 0,0 l/m 7,6 km/h (2 Bft) W 270 2,1 C 2,5 C
22.02.2012 06:22 4,4 C 85 % 1028,0 hPa 0,0 l/m 11,2 km/h (2 Bft) W-SW 247 2,1 C 1,7 C
22.02.2012 06:27 4,3 C 85 % 1028,2 hPa 0,0 l/m 13,3 km/h (3 Bft) W-SW 247 2,0 C 1,2 C
22.02.2012 06:32 4,2 C 85 % 1028,2 hPa 0,0 l/m 8,3 km/h (2 Bft) W-SW 247 1,9 C 2,1 C
22.02.2012 06:37 4,2 C 86 % 1028,2 hPa 0,0 l/m 12,2 km/h (2 Bft) W-SW 247 2,1 C 1,2 C
22.02.2012 06:42 4,1 C 86 % 1028,0 hPa 0,0 l/m 21,6 km/h (4 Bft) SW 225 2,0 C -0,3 C
22.02.2012 06:47 4,1 C 86 % 1028,0 hPa 0,0 l/m 6,1 km/h (2 Bft) W 270 2,0 C 2,7 C
22.02.2012 06:52 4,1 C 86 % 1028,1 hPa 0,0 l/m 7,2 km/h (2 Bft) W-SW 247 2,0 C 2,3 C
22.02.2012 06:57 4,1 C 86 % 1028,2 hPa 0,0 l/m 12,2 km/h (2 Bft) W-SW 247 2,0 C 1,1 C
22.02.2012 07:02 4,1 C 86 % 1028,0 hPa 0,0 l/m 4,7 km/h (1 Bft) W-SW 247 2,0 C 3,2 C
22.02.2012 07:07 4,0 C 86 % 1028,0 hPa 0,0 l/m 6,5 km/h (2 Bft) W-SW 247 1,9 C 2,4 C
22.02.2012 07:12 3,9 C 86 % 1028,2 hPa 0,0 l/m 7,6 km/h (2 Bft) W-SW 247 1,8 C 2,0 C
22.02.2012 07:17 3,9 C 87 % 1028,3 hPa 0,0 l/m 5,8 km/h (2 Bft) S-SW 202 1,9 C 2,5 C
22.02.2012 07:22 4,0 C 87 % 1028,3 hPa 0,0 l/m 12,2 km/h (2 Bft) W-SW 247 2,0 C 1,0 C
22.02.2012 07:27 4,1 C 87 % 1028,3 hPa 0,0 l/m 7,2 km/h (2 Bft) S-SW 202 2,1 C 2,3 C
22.02.2012 07:32 4,1 C 87 % 1028,3 hPa 0,0 l/m 7,2 km/h (2 Bft) W 270 2,1 C 2,3 C
22.02.2012 07:37 4,1 C 87 % 1028,5 hPa 0,0 l/m 11,9 km/h (2 Bft) W-SW 247 2,1 C 1,2 C
22.02.2012 07:42 4,1 C 87 % 1028,3 hPa 0,0 l/m 6,5 km/h (2 Bft) W 270 2,1 C 2,5 C
22.02.2012 07:47 4,2 C 87 % 1028,3 hPa 0,0 l/m 10,4 km/h (2 Bft) W-SW 247 2,2 C 1,6 C
22.02.2012 07:52 4,2 C 87 % 1028,4 hPa 0,0 l/m 13,3 km/h (3 Bft) SW 225 2,2 C 1,0 C
22.02.2012 07:57 4,2 C 87 % 1028,5 hPa 0,0 l/m 10,4 km/h (2 Bft) W-SW 247 2,2 C 1,6 C
22.02.2012 08:02 4,3 C 86 % 1028,5 hPa 0,0 l/m 13,0 km/h (3 Bft) W 270 2,2 C 1,2 C
22.02.2012 08:07 4,3 C 86 % 1028,5 hPa 0,0 l/m 15,5 km/h (3 Bft) SW 225 2,2 C 0,8 C
22.02.2012 08:12 4,3 C 86 % 1028,5 hPa 0,0 l/m 8,3 km/h (2 Bft) W-SW 247 2,2 C 2,2 C
22.02.2012 08:17 4,3 C 86 % 1028,5 hPa 0,0 l/m 9,4 km/h (2 Bft) W 270 2,2 C 2,0 C
22.02.2012 08:22 4,4 C 86 % 1028,4 hPa 0,0 l/m 15,1 km/h (3 Bft) W 270 2,3 C 1,0 C
22.02.2012 08:27 4,4 C 86 % 1028,6 hPa 0,0 l/m 9,0 km/h (2 Bft) W-SW 247 2,3 C 2,2 C
22.02.2012 08:32 4,4 C 86 % 1028,5 hPa 0,0 l/m 12,6 km/h (3 Bft) W-SW 247 2,3 C 1,4 C
22.02.2012 08:37 4,5 C 86 % 1028,6 hPa 0,0 l/m 23,4 km/h (4 Bft) W-SW 247 2,4 C 0,0 C
22.02.2012 08:42 4,6 C 85 % 1028,5 hPa 0,0 l/m 15,8 km/h (3 Bft) W-SW 247 2,3 C 1,1 C
22.02.2012 08:47 4,6 C 85 % 1028,6 hPa 0,0 l/m 16,9 km/h (3 Bft) SW 225 2,3 C 1,0 C
22.02.2012 08:52 4,6 C 86 % 1028,6 hPa 0,0 l/m 15,8 km/h (3 Bft) SW 225 2,5 C 1,1 C
22.02.2012 08:57 4,7 C 85 % 1028,6 hPa 0,0 l/m 8,3 km/h (2 Bft) S 180 2,4 C 2,7 C
22.02.2012 09:02 4,7 C 85 % 1028,4 hPa 0,0 l/m 23,8 km/h (4 Bft) W 270 2,4 C 0,3 C
22.02.2012 09:07 4,8 C 85 % 1028,4 hPa 0,0 l/m 10,1 km/h (2 Bft) W 270 2,5 C 2,4 C
22.02.2012 09:12 4,9 C 85 % 1028,6 hPa 0,0 l/m 15,8 km/h (3 Bft) W-SW 247 2,6 C 1,5 C
22.02.2012 09:17 4,9 C 85 % 1028,6 hPa 0,0 l/m 20,9 km/h (4 Bft) W 270 2,6 C 0,8 C
22.02.2012 09:22 5,0 C 85 % 1028,2 hPa 0,0 l/m 16,6 km/h (3 Bft) W-SW 247 2,7 C 1,5 C
22.02.2012 09:27 5,1 C 84 % 1028,2 hPa 0,0 l/m 13,0 km/h (3 Bft) W-SW 247 2,6 C 2,2 C
22.02.2012 09:32 5,1 C 84 % 1028,3 hPa 0,0 l/m 13,0 km/h (3 Bft) SW 225 2,6 C 2,2 C
22.02.2012 09:37 5,2 C 84 % 1028,2 hPa 0,0 l/m 10,1 km/h (2 Bft) W 270 2,7 C 2,9 C
22.02.2012 09:42 5,3 C 84 % 1028,1 hPa 0,0 l/m 13,7 km/h (3 Bft) W 270 2,8 C 2,3 C
22.02.2012 09:47 5,3 C 83 % 1028,2 hPa 0,0 l/m 14,0 km/h (3 Bft) S-SO 157 2,7 C 2,3 C
22.02.2012 09:52 5,4 C 84 % 1028,1 hPa 0,0 l/m 12,2 km/h (2 Bft) W-NW 292 2,9 C 2,7 C
22.02.2012 09:57 5,5 C 84 % 1028,2 hPa 0,0 l/m 15,8 km/h (3 Bft) SW 225 3,0 C 2,2 C
22.02.2012 10:02 5,6 C 83 % 1028,1 hPa 0,0 l/m 24,8 km/h (4 Bft) S-SW 202 2,9 C 1,3 C
22.02.2012 10:07 5,7 C 83 % 1028,1 hPa 0,0 l/m 9,7 km/h (2 Bft) S-SW 202 3,0 C 3,6 C
22.02.2012 10:12 5,8 C 83 % 1028,0 hPa 0,0 l/m 11,2 km/h (2 Bft) S-SW 202 3,1 C 3,4 C
22.02.2012 10:17 5,9 C 83 % 1027,9 hPa 0,0 l/m 6,8 km/h (2 Bft) SW 225 3,2 C 4,5 C
22.02.2012 10:22 5,9 C 82 % 1027,9 hPa 0,0 l/m 16,9 km/h (3 Bft) S-SW 202 3,1 C 2,6 C
22.02.2012 10:27 6,0 C 82 % 1027,9 hPa 0,0 l/m 8,3 km/h (2 Bft) SO 135 3,2 C 4,2 C
22.02.2012 10:32 6,1 C 82 % 1028,0 hPa 0,0 l/m 14,4 km/h (3 Bft) S-SO 157 3,3 C 3,2 C
22.02.2012 10:37 6,1 C 81 % 1028,0 hPa 0,0 l/m 11,9 km/h (2 Bft) SW 225 3,1 C 3,6 C
22.02.2012 10:42 6,2 C 81 % 1028,1 hPa 0,0 l/m 18,4 km/h (3 Bft) W-SW 247 3,2 C 2,8 C
22.02.2012 10:47 6,3 C 81 % 1027,9 hPa 0,0 l/m 9,7 km/h (2 Bft) W-SW 247 3,3 C 4,3 C
22.02.2012 10:52 6,3 C 81 % 1027,9 hPa 0,0 l/m 5,8 km/h (2 Bft) W 270 3,3 C 5,3 C
22.02.2012 10:57 6,3 C 81 % 1028,0 hPa 0,0 l/m 10,1 km/h (2 Bft) S-SW 202 3,3 C 4,2 C
22.02.2012 11:02 6,4 C 81 % 1028,0 hPa 0,0 l/m 9,7 km/h (2 Bft) W-SW 247 3,4 C 4,4 C
22.02.2012 11:07 6,4 C 81 % 1027,9 hPa 0,0 l/m 10,1 km/h (2 Bft) W-SW 247 3,4 C 4,3 C
22.02.2012 11:12 6,4 C 81 % 1028,0 hPa 0,0 l/m 9,7 km/h (2 Bft) S-SW 202 3,4 C 4,4 C
22.02.2012 11:17 6,5 C 81 % 1028,0 hPa 0,0 l/m 12,2 km/h (2 Bft) W 270 3,5 C 4,0 C
22.02.2012 11:22 6,5 C 80 % 1028,0 hPa 0,0 l/m 14,0 km/h (3 Bft) W-SW 247 3,3 C 3,7 C
22.02.2012 11:27 6,6 C 80 % 1028,0 hPa 0,0 l/m 9,7 km/h (2 Bft) W-SW 247 3,4 C 4,6 C
22.02.2012 11:32 6,6 C 80 % 1027,9 hPa 0,0 l/m 10,8 km/h (2 Bft) W 270 3,4 C 4,4 C
22.02.2012 11:37 6,6 C 80 % 1028,0 hPa 0,0 l/m 7,2 km/h (2 Bft) W 270 3,4 C 5,2 C
22.02.2012 11:42 6,7 C 80 % 1028,0 hPa 0,0 l/m 13,7 km/h (3 Bft) W-SW 247 3,5 C 4,0 C
22.02.2012 11:47 6,8 C 80 % 1027,8 hPa 0,0 l/m 16,6 km/h (3 Bft) W 270 3,6 C 3,7 C
22.02.2012 11:52 6,8 C 79 % 1027,7 hPa 0,0 l/m 14,8 km/h (3 Bft) W-SW 247 3,4 C 4,0 C
22.02.2012 11:57 6,9 C 79 % 1027,7 hPa 0,0 l/m 8,3 km/h (2 Bft) W-SW 247 3,5 C 5,3 C
22.02.2012 12:02 6,9 C 79 % 1027,7 hPa 0,0 l/m 15,8 km/h (3 Bft) W-NW 292 3,5 C 4,0 C
22.02.2012 12:07 6,9 C 79 % 1027,7 hPa 0,0 l/m 13,3 km/h (3 Bft) S-SW 202 3,5 C 4,3 C
22.02.2012 12:12 6,9 C 79 % 1027,6 hPa 0,0 l/m 18,4 km/h (3 Bft) W 270 3,5 C 3,6 C
22.02.2012 12:17 6,9 C 79 % 1027,4 hPa 0,0 l/m 13,0 km/h (3 Bft) W 270 3,5 C 4,4 C
22.02.2012 12:22 7,0 C 78 % 1027,5 hPa 0,0 l/m 10,4 km/h (2 Bft) W-SW 247 3,4 C 5,0 C
22.02.2012 12:27 6,9 C 78 % 1027,6 hPa 0,0 l/m 16,6 km/h (3 Bft) W 270 3,3 C 3,9 C
22.02.2012 12:32 7,0 C 78 % 1027,6 hPa 0,0 l/m 23,4 km/h (4 Bft) W-SW 247 3,4 C 3,2 C
22.02.2012 12:37 7,0 C 78 % 1027,3 hPa 0,0 l/m 25,2 km/h (4 Bft) W 270 3,4 C 3,1 C
22.02.2012 12:42 7,0 C 78 % 1027,3 hPa 0,0 l/m 19,1 km/h (3 Bft) S-SW 202 3,4 C 3,7 C
22.02.2012 12:47 7,1 C 78 % 1027,3 hPa 0,0 l/m 22,7 km/h (4 Bft) SW 225 3,5 C 3,4 C
22.02.2012 12:52 7,2 C 77 % 1027,0 hPa 0,0 l/m 12,2 km/h (2 Bft) W 270 3,4 C 4,9 C
22.02.2012 12:57 7,2 C 77 % 1027,0 hPa 0,0 l/m 15,5 km/h (3 Bft) W-SW 247 3,4 C 4,4 C
22.02.2012 13:02 7,2 C 77 % 1026,8 hPa 0,0 l/m 9,4 km/h (2 Bft) W 270 3,4 C 5,4 C
22.02.2012 13:07 7,3 C 77 % 1026,8 hPa 0,0 l/m 11,2 km/h (2 Bft) W 270 3,5 C 5,2 C
22.02.2012 13:12 7,3 C 77 % 1026,7 hPa 0,0 l/m 25,2 km/h (4 Bft) W 270 3,5 C 3,5 C
22.02.2012 13:17 7,3 C 77 % 1026,7 hPa 0,0 l/m 8,3 km/h (2 Bft) W 270 3,5 C 5,8 C
22.02.2012 13:22 7,3 C 77 % 1026,5 hPa 0,0 l/m 14,4 km/h (3 Bft) W-SW 247 3,5 C 4,7 C
22.02.2012 13:27 7,3 C 77 % 1026,4 hPa 0,0 l/m 11,5 km/h (2 Bft) W-SW 247 3,5 C 5,1 C
22.02.2012 13:32 7,3 C 77 % 1026,4 hPa 0,0 l/m 12,2 km/h (2 Bft) W-SW 247 3,5 C 5,0 C
22.02.2012 13:37 7,4 C 77 % 1026,4 hPa 0,0 l/m 16,9 km/h (3 Bft) W-SW 247 3,6 C 4,5 C
22.02.2012 13:42 7,4 C 77 % 1026,2 hPa 0,0 l/m 23,4 km/h (4 Bft) W-SW 247 3,6 C 3,7 C
22.02.2012 13:47 7,4 C 77 % 1026,0 hPa 0,0 l/m 16,9 km/h (3 Bft) W-SW 247 3,6 C 4,5 C
22.02.2012 13:52 7,5 C 77 % 1025,8 hPa 0,0 l/m 12,2 km/h (2 Bft) W-SW 247 3,7 C 5,3 C
22.02.2012 13:57 7,5 C 77 % 1025,8 hPa 0,0 l/m 16,9 km/h (3 Bft) W-SW 247 3,7 C 4,6 C
22.02.2012 14:02 7,5 C 76 % 1025,7 hPa 0,0 l/m 11,2 km/h (2 Bft) W 270 3,5 C 5,4 C
22.02.2012 14:07 7,6 C 76 % 1025,7 hPa 0,0 l/m 7,6 km/h (2 Bft) SW 225 3,6 C 6,3 C
22.02.2012 14:12 7,6 C 76 % 1025,6 hPa 0,0 l/m 13,7 km/h (3 Bft) W 270 3,6 C 5,1 C
22.02.2012 14:17 7,6 C 76 % 1025,6 hPa 0,0 l/m 14,0 km/h (3 Bft) W 270 3,6 C 5,1 C
22.02.2012 14:22 7,7 C 76 % 1025,4 hPa 0,0 l/m 19,8 km/h (3 Bft) W-SW 247 3,7 C 4,5 C
22.02.2012 14:27 7,7 C 76 % 1025,4 hPa 0,0 l/m 9,4 km/h (2 Bft) W 270 3,7 C 6,0 C
22.02.2012 14:32 7,8 C 76 % 1025,4 hPa 0,0 l/m 10,8 km/h (2 Bft) W-SW 247 3,8 C 5,9 C
22.02.2012 14:37 7,8 C 76 % 1025,4 hPa 0,0 l/m 9,4 km/h (2 Bft) S-SW 202 3,8 C 6,1 C
22.02.2012 14:42 7,8 C 76 % 1025,4 hPa 0,0 l/m 13,3 km/h (3 Bft) W-SW 247 3,8 C 5,4 C
22.02.2012 14:47 7,8 C 75 % 1025,2 hPa 0,0 l/m 11,9 km/h (2 Bft) W-SW 247 3,7 C 5,7 C
22.02.2012 14:52 7,9 C 75 % 1025,0 hPa 0,0 l/m 8,6 km/h (2 Bft) W-SW 247 3,7 C 6,4 C
22.02.2012 14:57 7,9 C 75 % 1024,8 hPa 0,0 l/m 14,0 km/h (3 Bft) W-SW 247 3,7 C 5,5 C
22.02.2012 15:02 7,9 C 75 % 1024,8 hPa 0,0 l/m 13,0 km/h (3 Bft) S-SW 202 3,7 C 5,6 C
22.02.2012 15:07 7,9 C 75 % 1024,5 hPa 0,0 l/m 11,2 km/h (2 Bft) W 270 3,7 C 5,9 C
22.02.2012 15:12 8,1 C 75 % 1024,4 hPa 0,0 l/m 10,8 km/h (2 Bft) S-SW 202 3,9 C 6,2 C
22.02.2012 15:17 8,1 C 74 % 1024,4 hPa 0,0 l/m 7,6 km/h (2 Bft) S 180 3,8 C 6,9 C
22.02.2012 15:22 8,2 C 74 % 1024,3 hPa 0,0 l/m 9,4 km/h (2 Bft) W-SW 247 3,8 C 6,6 C
22.02.2012 15:27 8,2 C 74 % 1024,3 hPa 0,0 l/m 6,1 km/h (2 Bft) SW 225 3,8 C 7,4 C
22.02.2012 15:32 8,3 C 74 % 1024,2 hPa 0,0 l/m 15,1 km/h (3 Bft) S 180 3,9 C 5,8 C
22.02.2012 15:37 8,3 C 74 % 1024,3 hPa 0,0 l/m 11,9 km/h (2 Bft) W 270 3,9 C 6,3 C
22.02.2012 15:42 8,3 C 74 % 1024,3 hPa 0,0 l/m 5,4 km/h (1 Bft) SW 225 3,9 C 7,7 C
22.02.2012 15:47 8,2 C 74 % 1024,2 hPa 0,0 l/m 9,4 km/h (2 Bft) W-SW 247 3,8 C 6,6 C
22.02.2012 15:52 8,2 C 74 % 1024,2 hPa 0,0 l/m 14,0 km/h (3 Bft) W 270 3,8 C 5,8 C
22.02.2012 15:57 8,2 C 74 % 1024,1 hPa 0,0 l/m 9,7 km/h (2 Bft) W-SW 247 3,8 C 6,5 C
22.02.2012 16:02 8,1 C 74 % 1023,9 hPa 0,0 l/m 22,0 km/h (4 Bft) W-SW 247 3,8 C 4,8 C
22.02.2012 16:07 8,2 C 74 % 1023,9 hPa 0,0 l/m 11,9 km/h (2 Bft) W 270 3,8 C 6,2 C
22.02.2012 16:12 8,2 C 74 % 1023,8 hPa 0,0 l/m 14,4 km/h (3 Bft) W 270 3,8 C 5,8 C
22.02.2012 16:17 8,1 C 74 % 1023,6 hPa 0,0 l/m 18,7 km/h (3 Bft) S-SW 202 3,8 C 5,1 C
22.02.2012 16:22 8,1 C 74 % 1023,5 hPa 0,0 l/m 12,2 km/h (2 Bft) SW 225 3,8 C 6,0 C
22.02.2012 16:27 8,1 C 74 % 1023,3 hPa 0,0 l/m 10,1 km/h (2 Bft) S-SW 202 3,8 C 6,3 C
22.02.2012 16:32 8,1 C 74 % 1023,3 hPa 0,0 l/m 12,6 km/h (3 Bft) S-SW 202 3,8 C 5,9 C
22.02.2012 16:37 8,0 C 74 % 1023,2 hPa 0,0 l/m 12,2 km/h (2 Bft) SW 225 3,7 C 5,9 C
22.02.2012 16:42 7,9 C 74 % 1023,0 hPa 0,0 l/m 9,0 km/h (2 Bft) W-SW 247 3,6 C 6,3 C
22.02.2012 16:47 7,9 C 74 % 1023,1 hPa 0,0 l/m 9,4 km/h (2 Bft) SW 225 3,6 C 6,2 C
22.02.2012 16:52 7,9 C 74 % 1022,9 hPa 0,0 l/m 11,2 km/h (2 Bft) W-SW 247 3,6 C 5,9 C
22.02.2012 16:57 7,8 C 74 % 1022,9 hPa 0,0 l/m 12,6 km/h (3 Bft) W-SW 247 3,5 C 5,6 C
22.02.2012 17:02 7,8 C 74 % 1022,8 hPa 0,0 l/m 5,8 km/h (2 Bft) S-SW 202 3,5 C 7,0 C
22.02.2012 17:07 7,6 C 75 % 1022,8 hPa 0,0 l/m 6,5 km/h (2 Bft) SW 225 3,5 C 6,6 C
22.02.2012 17:12 7,6 C 75 % 1022,7 hPa 0,0 l/m 7,9 km/h (2 Bft) SW 225 3,5 C 6,2 C
22.02.2012 17:17 7,5 C 75 % 1022,6 hPa 0,0 l/m 15,5 km/h (3 Bft) W-SW 247 3,4 C 4,8 C
22.02.2012 17:22 7,4 C 75 % 1022,5 hPa 0,0 l/m 9,0 km/h (2 Bft) W-SW 247 3,3 C 5,7 C
22.02.2012 17:27 7,4 C 75 % 1022,5 hPa 0,0 l/m 10,4 km/h (2 Bft) SW 225 3,3 C 5,4 C
22.02.2012 17:32 7,3 C 75 % 1022,4 hPa 0,0 l/m 7,9 km/h (2 Bft) SW 225 3,2 C 5,9 C
22.02.2012 17:37 7,3 C 75 % 1022,4 hPa 0,0 l/m 16,6 km/h (3 Bft) W-SW 247 3,2 C 4,4 C
22.02.2012 17:42 7,2 C 75 % 1022,3 hPa 0,0 l/m 10,4 km/h (2 Bft) SW 225 3,1 C 5,2 C
22.02.2012 17:47 7,2 C 75 % 1022,1 hPa 0,0 l/m 4,3 km/h (1 Bft) W-SW 247 3,1 C 7,2 C
22.02.2012 17:52 7,2 C 75 % 1022,1 hPa 0,0 l/m 8,6 km/h (2 Bft) S-SW 202 3,1 C 5,6 C
22.02.2012 17:57 7,2 C 75 % 1021,9 hPa 0,0 l/m 12,6 km/h (3 Bft) W-SW 247 3,1 C 4,8 C
22.02.2012 18:02 7,1 C 75 % 1022,0 hPa 0,0 l/m 6,1 km/h (2 Bft) SW 225 3,0 C 6,1 C
22.02.2012 18:07 7,1 C 74 % 1022,0 hPa 0,0 l/m 7,2 km/h (2 Bft) S-SW 202 2,8 C 5,8 C
22.02.2012 18:12 7,1 C 74 % 1021,8 hPa 0,0 l/m 14,0 km/h (3 Bft) S-SW 202 2,8 C 4,5 C
22.02.2012 18:17 7,0 C 74 % 1021,7 hPa 0,0 l/m 16,6 km/h (3 Bft) S-SW 202 2,7 C 4,0 C
22.02.2012 18:22 6,9 C 74 % 1021,5 hPa 0,0 l/m 7,2 km/h (2 Bft) S 180 2,6 C 5,6 C
22.02.2012 18:27 6,9 C 75 % 1021,5 hPa 0,0 l/m 11,9 km/h (2 Bft) S-SW 202 2,8 C 4,6 C
22.02.2012 18:32 6,8 C 75 % 1021,3 hPa 0,0 l/m 6,8 km/h (2 Bft) S-SO 157 2,7 C 5,6 C
22.02.2012 18:37 6,7 C 75 % 1021,4 hPa 0,0 l/m 12,2 km/h (2 Bft) S 180 2,6 C 4,3 C
22.02.2012 18:42 6,6 C 75 % 1021,2 hPa 0,0 l/m 14,0 km/h (3 Bft) S-SW 202 2,5 C 3,9 C
22.02.2012 18:47 6,6 C 75 % 1021,1 hPa 0,0 l/m 8,3 km/h (2 Bft) SW 225 2,5 C 4,9 C
22.02.2012 18:52 6,6 C 75 % 1021,3 hPa 0,0 l/m 7,6 km/h (2 Bft) S-SW 202 2,5 C 5,1 C
22.02.2012 18:57 6,6 C 75 % 1021,0 hPa 0,0 l/m 13,3 km/h (3 Bft) W-SW 247 2,5 C 4,0 C
22.02.2012 19:02 6,6 C 75 % 1020,8 hPa 0,0 l/m 14,0 km/h (3 Bft) S-SW 202 2,5 C 3,9 C
22.02.2012 19:07 6,6 C 75 % 1020,8 hPa 0,0 l/m 13,0 km/h (3 Bft) S 180 2,5 C 4,0 C
22.02.2012 19:12 6,6 C 75 % 1020,8 hPa 0,0 l/m 16,9 km/h (3 Bft) S-SW 202 2,5 C 3,5 C
22.02.2012 19:17 6,6 C 75 % 1020,6 hPa 0,0 l/m 6,1 km/h (2 Bft) S 180 2,5 C 5,5 C
22.02.2012 19:22 6,5 C 75 % 1020,5 hPa 0,0 l/m 8,3 km/h (2 Bft) S-SW 202 2,4 C 4,8 C
22.02.2012 19:27 6,4 C 75 % 1020,4 hPa 0,0 l/m 8,6 km/h (2 Bft) SO 135 2,3 C 4,6 C
22.02.2012 19:32 6,4 C 76 % 1020,3 hPa 0,0 l/m 6,8 km/h (2 Bft) S 180 2,5 C 5,1 C
22.02.2012 19:37 6,4 C 76 % 1020,3 hPa 0,0 l/m 11,5 km/h (2 Bft) W-SW 247 2,5 C 4,0 C
22.02.2012 19:42 6,4 C 76 % 1020,0 hPa 0,0 l/m 6,5 km/h (2 Bft) S-SW 202 2,5 C 5,2 C
22.02.2012 19:47 6,3 C 76 % 1020,0 hPa 0,0 l/m 11,9 km/h (2 Bft) SW 225 2,4 C 3,8 C
22.02.2012 19:52 6,3 C 76 % 1019,8 hPa 0,0 l/m 8,3 km/h (2 Bft) S-SO 157 2,4 C 4,6 C
22.02.2012 19:57 6,3 C 76 % 1020,1 hPa 0,0 l/m 14,8 km/h (3 Bft) SW 225 2,4 C 3,4 C
22.02.2012 20:02 6,3 C 76 % 1020,0 hPa 0,0 l/m 7,2 km/h (2 Bft) S-SW 202 2,4 C 4,9 C
22.02.2012 20:07 6,4 C 76 % 1019,7 hPa 0,0 l/m 11,2 km/h (2 Bft) S 180 2,5 C 4,1 C
22.02.2012 20:12 6,4 C 76 % 1019,6 hPa 0,0 l/m 13,3 km/h (3 Bft) S-SW 202 2,5 C 3,7 C
22.02.2012 20:17 6,4 C 76 % 1019,6 hPa 0,0 l/m 6,1 km/h (2 Bft) S 180 2,5 C 5,3 C
22.02.2012 20:22 6,4 C 76 % 1019,4 hPa 0,0 l/m 6,5 km/h (2 Bft) S 180 2,5 C 5,2 C
22.02.2012 20:27 6,3 C 76 % 1019,3 hPa 0,0 l/m 10,4 km/h (2 Bft) SW 225 2,4 C 4,1 C
22.02.2012 20:32 6,2 C 76 % 1019,1 hPa 0,0 l/m 22,3 km/h (4 Bft) S-SW 202 2,3 C 2,3 C
22.02.2012 20:37 6,1 C 76 % 1019,2 hPa 0,0 l/m 7,6 km/h (2 Bft) S 180 2,2 C 4,5 C
22.02.2012 20:42 6,1 C 76 % 1019,2 hPa 0,0 l/m 14,8 km/h (3 Bft) S-SW 202 2,2 C 3,1 C
22.02.2012 20:47 6,0 C 76 % 1019,0 hPa 0,0 l/m 9,4 km/h (2 Bft) S-SO 157 2,1 C 4,0 C
22.02.2012 20:52 5,9 C 77 % 1018,7 hPa 0,0 l/m 17,6 km/h (3 Bft) SW 225 2,2 C 2,5 C
22.02.2012 20:57 5,9 C 77 % 1018,5 hPa 0,0 l/m 8,6 km/h (2 Bft) S-SW 202 2,2 C 4,0 C
22.02.2012 21:02 5,9 C 77 % 1018,4 hPa 0,0 l/m 11,5 km/h (2 Bft) S 180 2,2 C 3,4 C
22.02.2012 21:07 5,9 C 77 % 1018,3 hPa 0,0 l/m 10,4 km/h (2 Bft) S-SO 157 2,2 C 3,7 C
22.02.2012 21:12 5,9 C 76 % 1018,2 hPa 0,0 l/m 14,8 km/h (3 Bft) SW 225 2,0 C 2,9 C
22.02.2012 21:17 5,9 C 76 % 1018,3 hPa 0,0 l/m 10,4 km/h (2 Bft) S-SW 202 2,0 C 3,7 C
22.02.2012 21:22 5,9 C 76 % 1018,1 hPa 0,0 l/m 19,1 km/h (3 Bft) SO 135 2,0 C 2,3 C
22.02.2012 21:27 5,9 C 76 % 1018,1 hPa 0,0 l/m 13,3 km/h (3 Bft) S-SW 202 2,0 C 3,1 C
22.02.2012 21:32 6,0 C 75 % 1018,0 hPa 0,0 l/m 9,0 km/h (2 Bft) S-SW 202 1,9 C 4,1 C
22.02.2012 21:37 6,1 C 75 % 1017,8 hPa 0,0 l/m 13,3 km/h (3 Bft) S 180 2,0 C 3,4 C
22.02.2012 21:42 6,1 C 75 % 1017,8 hPa 0,0 l/m 14,4 km/h (3 Bft) S-SW 202 2,0 C 3,2 C
22.02.2012 21:47 6,1 C 75 % 1017,8 hPa 0,0 l/m 8,6 km/h (2 Bft) S 180 2,0 C 4,3 C
22.02.2012 21:52 5,9 C 75 % 1017,6 hPa 0,0 l/m 13,0 km/h (3 Bft) SW 225 1,8 C 3,2 C
22.02.2012 21:57 5,9 C 75 % 1017,4 hPa 0,0 l/m 10,4 km/h (2 Bft) S 180 1,8 C 3,7 C
22.02.2012 22:02 5,9 C 75 % 1017,3 hPa 0,0 l/m 10,8 km/h (2 Bft) S-SW 202 1,8 C 3,6 C
22.02.2012 22:07 5,9 C 75 % 1017,2 hPa 0,0 l/m 6,1 km/h (2 Bft) W-SW 247 1,8 C 4,7 C
22.02.2012 22:12 5,8 C 75 % 1016,9 hPa 0,0 l/m 11,2 km/h (2 Bft) S 180 1,7 C 3,4 C
22.02.2012 22:17 5,8 C 75 % 1016,7 hPa 0,0 l/m 14,8 km/h (3 Bft) S-SW 202 1,7 C 2,8 C
22.02.2012 22:22 5,8 C 75 % 1016,7 hPa 0,0 l/m 15,1 km/h (3 Bft) S-SW 202 1,7 C 2,7 C
22.02.2012 22:27 5,7 C 75 % 1016,6 hPa 0,0 l/m 9,0 km/h (2 Bft) SW 225 1,6 C 3,7 C
22.02.2012 22:32 5,7 C 75 % 1016,6 hPa 0,0 l/m 18,4 km/h (3 Bft) S-SW 202 1,6 C 2,1 C
22.02.2012 22:37 5,6 C 75 % 1016,5 hPa 0,0 l/m 7,9 km/h (2 Bft) S-SW 202 1,5 C 3,9 C
22.02.2012 22:42 5,7 C 75 % 1016,5 hPa 0,0 l/m 12,2 km/h (2 Bft) SW 225 1,6 C 3,1 C
22.02.2012 22:47 5,8 C 75 % 1016,4 hPa 0,0 l/m 14,8 km/h (3 Bft) SW 225 1,7 C 2,8 C
22.02.2012 22:52 5,8 C 74 % 1016,3 hPa 0,0 l/m 10,4 km/h (2 Bft) SW 225 1,5 C 3,5 C
22.02.2012 22:57 5,9 C 74 % 1016,1 hPa 0,0 l/m 14,4 km/h (3 Bft) SW 225 1,6 C 2,9 C
22.02.2012 23:02 5,9 C 74 % 1016,2 hPa 0,0 l/m 11,2 km/h (2 Bft) W-SW 247 1,6 C 3,5 C
22.02.2012 23:07 6,1 C 74 % 1016,2 hPa 0,0 l/m 9,4 km/h (2 Bft) W 270 1,8 C 4,1 C
22.02.2012 23:12 6,1 C 74 % 1016,2 hPa 0,0 l/m 24,8 km/h (4 Bft) SW 225 1,8 C 1,9 C
22.02.2012 23:17 5,9 C 74 % 1015,9 hPa 0,0 l/m 6,1 km/h (2 Bft) S 180 1,6 C 4,7 C
22.02.2012 23:22 5,9 C 74 % 1015,8 hPa 0,0 l/m 14,8 km/h (3 Bft) S-SW 202 1,6 C 2,9 C
22.02.2012 23:27 5,9 C 74 % 1015,9 hPa 0,0 l/m 16,2 km/h (3 Bft) W-SW 247 1,6 C 2,7 C
22.02.2012 23:32 5,9 C 75 % 1015,7 hPa 0,0 l/m 17,3 km/h (3 Bft) W 270 1,8 C 2,5 C
22.02.2012 23:37 5,9 C 75 % 1015,6 hPa 0,5 l/m 7,2 km/h (2 Bft) SW 225 1,8 C 4,4 C
22.02.2012 23:42 5,9 C 75 % 1015,5 hPa 0,0 l/m 10,8 km/h (2 Bft) W-SW 247 1,8 C 3,6 C
22.02.2012 23:47 5,9 C 75 % 1015,4 hPa 0,0 l/m 8,3 km/h (2 Bft) SO 135 1,8 C 4,1 C
22.02.2012 23:52 6,1 C 75 % 1015,3 hPa 0,0 l/m 19,1 km/h (3 Bft) W-SW 247 2,0 C 2,6 C
22.02.2012 23:57 6,0 C 76 % 1015,4 hPa 0,0 l/m 19,1 km/h (3 Bft) W-SW 247 2,1 C 2,4 C
_ Min-Zeit 07:12 15:17 23:52 - 00:17 - - 22:37 06:42
Minimum _ 3,9 C 74 % 1015,3 hPa - 4,0 km/h (1 Bft) - - 1,5 C -0,3 C
_ Max-Zeit 15:32 00:17 01:22 23:37 04:57 - - 15:32 15:42
Maximum _ 8,3 C 91 % 1029,1 hPa 0,5 l/m 31,3 km/h
W-SW (5 Bft)
- - 3,9 C 7,7 C
Durchschnitt _ 6,1 C 81 % 1025,1 hPa #0,5 l/m 12,5 km/h (3 Bft) W-SW - 3,0 C 3,6 C
(c) by David Heller